Time;durP1;ratioP1;P1;durP2;ratioP2;P2;SDS_P1;SDS_P2;PMS_P1;PMS_P2;Temp;Humidity;BMP_temperature;BMP_pressure;BME280_temperature;BME280_humidity;BME280_pressure;Samples;Min_cycle;Max_cycle;Signal;HPM_P1;HPM_P2
2022/08/09 00:00:18;;;;;;;0.10;0.10;;;;;;;23.09;49.41;102201.13;5099367;28;20176;-41
2022/08/09 00:02:45;;;;;;;0.10;0.10;;;;;;;23.09;49.75;102201.13;5081965;28;20044;-40
2022/08/09 00:05:18;;;;;;;0.10;0.10;;;;;;;23.09;49.95;102201.97;5102186;28;20089;-40
2022/08/09 00:08:05;;;;;;;0.10;0.10;;;;;;;23.09;49.90;102195.56;5086458;28;20055;-39
2022/08/09 00:10:35;;;;;;;0.10;0.10;;;;;;;23.10;49.48;102200.00;5097865;28;20043;-41
2022/08/09 00:13:05;;;;;;;0.10;0.10;;;;;;;23.09;49.67;102195.56;5081143;28;20488;-38
2022/08/09 00:15:42;;;;;;;0.10;0.10;;;;;;;23.09;49.66;102195.56;5099213;28;20125;-41
2022/08/09 00:18:30;;;;;;;0.10;0.10;;;;;;;23.09;49.43;102198.34;5098800;28;20066;-40
2022/08/09 00:21:03;;;;;;;0.10;0.10;;;;;;;23.09;49.99;102193.63;5085482;28;20486;-41
2022/08/09 00:23:29;;;;;;;0.10;0.10;;;;;;;23.09;49.96;102190.00;5096209;28;20127;-41
2022/08/09 00:26:14;;;;;;;0.10;0.10;;;;;;;23.08;49.71;102191.13;5089416;28;20040;-41
2022/08/09 00:28:40;;;;;;;0.10;0.10;;;;;;;23.09;49.72;102192.78;5099163;28;20066;-40
2022/08/09 00:31:06;;;;;;;0.10;0.10;;;;;;;23.09;49.75;102196.41;5082976;28;20044;-41
2022/08/09 00:33:53;;;;;;;0.10;0.10;;;;;;;23.09;49.80;102190.84;5073209;28;20064;-41
2022/08/09 00:36:19;;;;;;;0.10;0.10;;;;;;;23.09;49.59;102195.56;5080716;28;20127;-41
2022/08/09 00:38:45;;;;;;;0.10;0.10;;;;;;;23.09;49.81;102196.41;5101324;28;20051;-39
2022/08/09 00:41:12;;;;;;;0.10;0.10;;;;;;;23.09;49.63;102201.13;5080770;28;20079;-41
2022/08/09 00:43:57;;;;;;;0.10;0.10;;;;;;;23.09;49.91;102193.63;5086228;28;20603;-41
2022/08/09 00:46:43;;;;;;;0.10;0.10;;;;;;;23.09;49.50;102195.56;5080044;28;20395;-41
2022/08/09 00:49:29;;;;;;;0.10;0.10;;;;;;;23.09;49.81;102199.19;5089583;28;20044;-39
2022/08/09 00:51:57;;;;;;;0.10;0.10;;;;;;;23.08;49.87;102200.31;5100285;28;20055;-40
2022/08/09 00:54:27;;;;;;;0.10;0.10;;;;;;;23.09;49.68;102201.13;5084070;28;20275;-39
2022/08/09 00:57:01;;;;;;;0.10;0.10;;;;;;;23.08;49.75;102200.31;5101309;28;20101;-39
2022/08/09 00:59:34;;;;;;;0.10;0.10;;;;;;;23.09;50.06;102192.78;5081896;28;20067;-39
2022/08/09 01:02:19;;;;;;;0.10;0.10;;;;;;;23.09;49.81;102192.78;5100970;28;20336;-39
2022/08/09 01:07:33;;;;;;;0.10;0.10;;;;;;;23.08;49.81;102200.31;5178275;27;20516;-39
2022/08/09 01:10:27;;;;;;;0.10;0.10;;;;;;;23.08;49.73;102197.53;5166597;27;20459;-39
2022/08/09 01:12:59;;;;;;;0.10;0.10;;;;;;;23.09;49.84;102201.13;5167141;27;20143;-38
2022/08/09 01:15:28;;;;;;;0.10;0.10;;;;;;;23.09;50.11;102199.19;5165225;27;20499;-40
2022/08/09 01:18:17;;;;;;;0.10;0.10;;;;;;;23.09;50.13;102199.19;5146790;27;20045;-37
2022/08/09 01:21:28;;;;;;;0.10;0.10;;;;;;;23.09;49.87;102199.19;5134954;27;20073;-39
2022/08/09 01:24:25;;;;;;;0.10;0.10;;;;;;;23.09;49.95;102195.56;5140938;27;20438;-38
2022/08/09 01:26:55;;;;;;;0.10;0.10;;;;;;;23.09;49.91;102201.13;5165676;27;20085;-39
2022/08/09 01:29:26;;;;;;;0.10;0.10;;;;;;;23.09;49.92;102192.78;5131410;27;20115;-38
2022/08/09 01:31:54;;;;;;;0.10;0.10;;;;;;;23.09;49.83;102196.41;5163935;27;20418;-40
2022/08/09 01:34:42;;;;;;;0.10;0.10;;;;;;;23.09;49.86;102198.34;5146280;27;20046;-38
2022/08/09 01:37:09;;;;;;;0.10;0.10;;;;;;;23.09;49.96;102198.34;5146701;27;20145;-39
2022/08/09 01:39:39;;;;;;;0.10;0.10;;;;;;;23.09;50.08;102198.34;5163505;27;20045;-39
2022/08/09 01:42:06;;;;;;;0.10;0.10;;;;;;;23.10;50.05;102208.34;5145174;27;20046;-38
2022/08/09 01:44:37;;;;;;;0.10;0.10;;;;;;;23.09;49.96;102203.91;5139221;27;20047;-38
2022/08/09 01:47:03;;;;;;;0.10;0.10;;;;;;;23.09;50.08;102204.75;5138925;27;20047;-37
2022/08/09 01:49:34;;;;;;;0.10;0.10;;;;;;;23.08;49.75;102205.84;5143549;27;20170;-39
2022/08/09 01:52:08;;;;;;;0.10;0.10;;;;;;;23.09;49.73;102207.50;5139780;27;20490;-38
2022/08/09 01:54:38;;;;;;;0.10;0.10;;;;;;;23.09;49.91;102201.97;5145338;27;20491;-38
2022/08/09 01:57:08;;;;;;;0.10;0.10;;;;;;;23.08;49.84;102200.31;5133986;27;20061;-40
2022/08/09 01:59:37;;;;;;;0.10;0.10;;;;;;;23.09;50.05;102198.34;5138846;27;20079;-39
2022/08/09 02:02:19;;;;;;;0.10;0.10;;;;;;;23.08;49.88;102200.31;5138930;27;20047;-39
2022/08/09 02:04:47;;;;;;;0.10;0.10;;;;;;;23.08;50.18;102202.25;5142386;27;20245;-39
2022/08/09 02:07:16;;;;;;;0.10;0.10;;;;;;;23.09;49.65;102201.97;5144377;27;20416;-39
2022/08/09 02:10:08;;;;;;;0.10;0.10;;;;;;;23.09;50.16;102201.13;5121573;27;20525;-39
2022/08/09 02:12:36;;;;;;;0.10;0.10;;;;;;;23.08;50.04;102203.06;5146717;27;20043;-39
2022/08/09 02:15:07;;;;;;;0.10;0.10;;;;;;;23.09;50.09;102199.19;5137149;27;20082;-39
2022/08/09 02:17:34;;;;;;;0.10;0.10;;;;;;;23.09;50.15;102207.50;5129710;27;20050;-38
2022/08/09 02:20:19;;;;;;;0.10;0.10;;;;;;;23.08;50.23;102205.84;5127469;27;20053;-38
2022/08/09 02:22:56;;;;;;;0.10;0.10;;;;;;;23.09;49.86;102203.91;5129912;27;20039;-39
2022/08/09 02:25:26;;;;;;;0.10;0.10;;;;;;;23.09;50.14;102203.91;5134488;27;20036;-37
2022/08/09 02:27:56;;;;;;;0.10;0.10;;;;;;;23.09;49.99;102198.34;5126190;27;20504;-39
2022/08/09 02:30:32;;;;;;;0.10;0.10;;;;;;;23.08;50.06;102208.63;5124117;27;20085;-39
2022/08/09 02:32:59;;;;;;;0.10;0.10;;;;;;;23.09;50.11;102198.34;5108995;28;20050;-39
2022/08/09 02:35:26;;;;;;;0.10;0.10;;;;;;;23.09;49.90;102196.41;5126002;27;20070;-38
2022/08/09 02:38:14;;;;;;;0.10;0.10;;;;;;;23.08;50.09;102193.91;5130175;27;20050;-39
2022/08/09 02:40:59;;;;;;;0.10;0.10;;;;;;;23.08;50.01;102186.41;5126367;27;20470;-39
2022/08/09 02:43:26;;;;;;;0.10;0.10;;;;;;;23.09;50.31;102190.00;5130302;27;20134;-38
2022/08/09 02:45:54;;;;;;;0.10;0.10;;;;;;;23.08;50.09;102191.97;5133510;27;20046;-40
2022/08/09 02:48:21;;;;;;;0.10;0.10;;;;;;;23.08;50.44;102189.19;5124792;27;20071;-38
2022/08/09 02:50:58;;;;;;;0.10;0.10;;;;;;;23.08;50.15;102185.56;5125054;27;20462;-38
2022/08/09 02:53:30;;;;;;;0.10;0.10;;;;;;;23.08;49.96;102194.75;5125720;27;20050;-38
2022/08/09 02:55:58;;;;;;;0.10;0.10;;;;;;;23.08;50.04;102194.75;5124468;27;20052;-39
2022/08/09 02:58:27;;;;;;;0.10;0.10;;;;;;;23.09;49.81;102195.56;5122483;27;20039;-38
2022/08/09 03:01:03;;;;;;;0.10;0.10;;;;;;;23.09;50.00;102187.25;5130461;27;20047;-39
2022/08/09 03:03:32;;;;;;;0.10;0.10;;;;;;;23.08;50.19;102191.97;5124964;27;20107;-37
2022/08/09 03:06:19;;;;;;;0.10;0.10;;;;;;;23.08;50.01;102193.91;5105933;27;20089;-39
2022/08/09 03:08:47;;;;;;;0.10;0.10;;;;;;;23.09;50.24;102192.78;5122129;27;20042;-39
2022/08/09 03:11:17;;;;;;;0.10;0.10;;;;;;;23.09;50.36;102190.00;5128418;27;20062;-39
2022/08/09 03:14:03;;;;;;;0.10;0.10;;;;;;;23.09;50.04;102190.00;5112393;27;20059;-37
2022/08/09 03:16:31;;;;;;;0.10;0.10;;;;;;;23.09;50.24;102182.50;5129484;27;20074;-38
2022/08/09 03:18:58;;;;;;;0.10;0.10;;;;;;;23.08;50.21;102191.97;5130941;27;20071;-38
2022/08/09 03:21:27;;;;;;;0.10;0.10;;;;;;;23.08;50.25;102186.41;5130984;27;20050;-39
2022/08/09 03:24:02;;;;;;;0.10;0.10;;;;;;;23.08;50.22;102189.19;5122448;28;20046;-38
2022/08/09 03:26:30;;;;;;;0.10;0.10;;;;;;;23.08;50.30;102189.19;5124875;27;20039;-39
2022/08/09 03:28:58;;;;;;;0.10;0.10;;;;;;;23.08;50.32;102183.63;5116767;27;20035;-41
2022/08/09 03:31:24;;;;;;;0.10;0.10;;;;;;;23.08;49.96;102189.19;5124372;27;20508;-39
2022/08/09 03:33:51;;;;;;;0.10;0.10;;;;;;;23.08;50.36;102189.19;5123481;27;20039;-38
2022/08/09 03:36:22;;;;;;;0.10;0.10;;;;;;;23.08;49.89;102193.91;5121168;27;20046;-39
2022/08/09 03:38:53;;;;;;;0.10;0.10;;;;;;;23.08;50.54;102186.41;5119325;27;20473;-38
2022/08/09 03:41:19;;;;;;;0.10;0.10;;;;;;;23.08;50.22;102189.19;5129967;27;20064;-39
2022/08/09 03:43:55;;;;;;;0.10;0.10;;;;;;;23.08;50.09;102186.41;5120977;27;20465;-38
2022/08/09 03:46:34;;;;;;;0.10;0.10;;;;;;;23.09;50.19;102184.47;5132006;27;20131;-41
2022/08/09 03:49:02;;;;;;;0.10;0.10;;;;;;;23.08;50.00;102188.34;5124614;27;20086;-38
2022/08/09 03:51:33;;;;;;;0.10;0.10;;;;;;;23.08;50.28;102191.13;5124988;27;20035;-40
2022/08/09 03:54:19;;;;;;;0.10;0.10;;;;;;;23.08;49.91;102191.97;5113217;28;20043;-38
2022/08/09 03:56:56;;;;;;;0.10;0.10;;;;;;;23.09;50.07;102195.56;5123298;27;20047;-40
2022/08/09 03:59:23;;;;;;;0.10;0.10;;;;;;;23.08;50.21;102194.75;5120908;27;20052;-39
2022/08/09 04:02:09;;;;;;;0.10;0.10;;;;;;;23.08;50.37;102194.75;5122453;27;20046;-39
2022/08/09 04:04:35;;;;;;;0.10;0.10;;;;;;;23.08;50.54;102197.53;5129994;27;20039;-38
2022/08/09 04:07:04;;;;;;;0.10;0.10;;;;;;;23.08;50.26;102205.03;5120813;27;20110;-40
2022/08/09 04:09:30;;;;;;;0.10;0.10;;;;;;;23.08;50.18;102205.03;5122952;27;20394;-40
2022/08/09 04:14:52;;;;;;;0.10;0.10;;;;;;;23.07;50.24;102198.63;5166726;27;20647;-40
2022/08/09 04:17:28;;;;;;;0.10;0.10;;;;;;;23.09;50.09;102206.69;5154081;27;20058;-38
2022/08/09 04:19:55;;;;;;;0.10;0.10;;;;;;;23.08;50.01;102210.59;5136564;27;20054;-38
2022/08/09 04:22:21;;;;;;;0.10;0.10;;;;;;;23.07;50.42;102206.97;5133519;27;20046;-40
2022/08/09 04:24:47;;;;;;;0.10;0.10;;;;;;;23.08;50.33;102216.13;5151716;27;20047;-40
2022/08/09 04:27:12;;;;;;;0.10;0.10;;;;;;;23.09;50.37;102217.81;5153340;27;20084;-40
2022/08/09 04:29:39;;;;;;;0.10;0.10;;;;;;;22.95;49.90;102212.78;5151546;27;20047;-36
2022/08/09 04:32:15;;;;;;;0.10;0.10;;;;;;;23.06;49.84;102219.22;5153980;27;20102;-39
2022/08/09 04:34:41;;;;;;;0.10;0.10;;;;;;;23.08;50.25;102221.69;5154397;27;20059;-38
2022/08/09 04:37:19;;;;;;;0.10;0.10;;;;;;;23.08;50.12;102222.53;5156188;27;20069;-40
2022/08/09 04:39:45;;;;;;;0.10;0.10;;;;;;;23.10;49.73;102222.25;5151259;27;20405;-40
2022/08/09 04:42:14;;;;;;;0.10;0.10;;;;;;;23.10;49.77;102220.31;5148876;27;20054;-40
2022/08/09 04:44:41;;;;;;;0.10;0.10;;;;;;;23.11;49.87;102226.72;5147893;27;20083;-40
2022/08/09 04:47:14;;;;;;;0.10;0.10;;;;;;;23.11;49.77;102224.75;5147318;27;20047;-40
2022/08/09 04:49:41;;;;;;;0.10;0.10;;;;;;;23.11;49.69;102230.31;5150578;27;20043;-40
2022/08/09 04:52:22;;;;;;;0.10;0.10;;;;;;;23.11;49.86;102240.59;5132965;27;20038;-40
2022/08/09 04:54:52;;;;;;;0.10;0.10;;;;;;;23.12;49.89;102231.16;5148218;27;20046;-40
2022/08/09 04:57:19;;;;;;;0.10;0.10;;;;;;;23.13;49.76;102230.03;5158625;27;20472;-40
2022/08/09 04:59:51;;;;;;;0.10;0.10;;;;;;;23.12;49.70;102236.72;5153764;27;20074;-39
2022/08/09 05:02:17;;;;;;;0.10;0.10;;;;;;;23.12;49.68;102234.75;5126961;27;20058;-39
2022/08/09 05:04:44;;;;;;;0.10;0.10;;;;;;;23.12;49.80;102236.72;5145788;27;20383;-40
2022/08/09 05:07:12;;;;;;;0.10;0.10;;;;;;;23.12;49.95;102240.31;5148962;27;20046;-40
2022/08/09 05:09:45;;;;;;;0.10;0.10;;;;;;;23.14;50.00;102242.81;5149132;27;20046;-40
2022/08/09 05:12:15;;;;;;;0.10;0.10;;;;;;;23.13;49.62;102239.19;5149310;27;20405;-40
2022/08/09 05:14:41;;;;;;;0.10;0.10;;;;;;;23.13;49.71;102246.72;5152479;27;20050;-39
2022/08/09 05:17:07;;;;;;;0.10;0.10;;;;;;;23.12;49.71;102251.44;5148074;27;20057;-39
2022/08/09 05:19:53;;;;;;;0.10;0.10;;;;;;;23.12;49.60;102250.59;5136566;27;20435;-37
2022/08/09 05:22:23;;;;;;;0.10;0.10;;;;;;;23.14;49.79;102251.97;5146431;27;20444;-38
2022/08/09 05:25:10;;;;;;;0.10;0.10;;;;;;;23.14;49.86;102257.53;5117479;27;20054;-39
2022/08/09 05:27:35;;;;;;;0.10;0.10;;;;;;;23.16;50.05;102257.28;5117261;27;20088;-40
2022/08/09 05:30:14;;;;;;;0.10;0.10;;;;;;;23.17;49.80;102248.66;5132665;27;20043;-40
2022/08/09 05:32:41;;;;;;;0.20;0.20;;;;;;;23.15;49.81;102247.28;5132778;27;20454;-40
2022/08/09 05:35:09;;;;;;;0.10;0.10;;;;;;;23.15;49.75;102253.66;5131527;27;20049;-40
2022/08/09 05:37:34;;;;;;;0.10;0.10;;;;;;;23.16;49.84;102246.16;5115029;27;20134;-38
2022/08/09 05:40:12;;;;;;;0.10;0.10;;;;;;;23.15;49.66;102253.66;5132375;27;20513;-38
2022/08/09 05:42:38;;;;;;;0.10;0.10;;;;;;;23.18;49.83;102257.81;5108756;28;20051;-43
2022/08/09 05:45:04;;;;;;;0.10;0.10;;;;;;;23.18;49.79;102258.66;5117509;28;20409;-41
2022/08/09 05:47:30;;;;;;;0.10;0.10;;;;;;;23.16;49.78;102251.72;5119216;28;20043;-41
2022/08/09 05:49:58;;;;;;;0.10;0.10;;;;;;;23.18;49.55;102255.03;5122106;28;20104;-38
2022/08/09 05:52:44;;;;;;;0.10;0.10;;;;;;;22.94;49.42;102251.97;5102961;28;20078;-41
2022/08/09 05:55:19;;;;;;;0.10;0.10;;;;;;;22.73;50.00;102260.19;5113206;28;20711;-43
2022/08/09 05:57:48;;;;;;;0.10;0.10;;;;;;;22.66;50.41;102258.78;5075903;28;20175;-43
2022/08/09 06:00:21;;;;;;;0.10;0.10;;;;;;;22.66;50.79;102261.56;5097555;28;20070;-43
2022/08/09 06:02:47;;;;;;;0.10;0.10;;;;;;;22.65;50.92;102265.44;5096285;27;20058;-48
2022/08/09 06:05:13;;;;;;;0.10;0.10;;;;;;;22.62;50.96;102263.22;5117098;27;20051;-42
2022/08/09 06:07:38;;;;;;;0.10;0.10;;;;;;;22.57;51.27;102263.19;5119091;28;20678;-41
2022/08/09 06:10:08;;;;;;;0.10;0.10;;;;;;;22.43;51.11;102272.03;5121094;28;20478;-44
2022/08/09 06:12:41;;;;;;;0.10;0.10;;;;;;;22.36;51.19;102274.19;5092150;28;20091;-44
2022/08/09 06:15:08;;;;;;;1.10;0.15;;;;;;;22.39;51.12;102273.66;5117192;28;20055;-43
2022/08/09 06:17:35;;;;;;;0.10;0.10;;;;;;;22.41;50.88;102268.69;5109046;27;20058;-41
2022/08/09 06:20:06;;;;;;;0.10;0.10;;;;;;;22.47;50.67;102269.56;5096830;28;20092;-43
2022/08/09 06:22:33;;;;;;;0.10;0.10;;;;;;;22.41;50.74;102268.69;5101918;28;20058;-42
2022/08/09 06:24:59;;;;;;;0.10;0.10;;;;;;;22.42;50.46;102263.97;5120495;27;20039;-46
2022/08/09 06:27:25;;;;;;;0.10;0.10;;;;;;;22.41;50.54;102270.63;5119755;28;20473;-43
2022/08/09 06:30:08;;;;;;;0.10;0.10;;;;;;;22.41;50.68;102267.84;5120329;28;20080;-43
2022/08/09 06:32:35;;;;;;;0.20;0.20;;;;;;;22.40;51.09;102268.94;5118189;28;20051;-43
2022/08/09 06:35:21;;;;;;;0.10;0.10;;;;;;;22.37;50.68;102275.06;5101936;28;20055;-43
2022/08/09 06:38:06;;;;;;;0.10;0.10;;;;;;;22.40;50.76;102271.72;5101988;28;20491;-42
2022/08/09 06:40:32;;;;;;;0.10;0.10;;;;;;;22.43;50.79;102274.81;5118791;28;20039;-43
2022/08/09 06:42:59;;;;;;;0.22;0.22;;;;;;;22.43;51.02;102271.19;5095090;27;20088;-44
2022/08/09 06:45:27;;;;;;;0.10;0.10;;;;;;;22.43;51.04;102271.19;5114791;28;20362;-44
2022/08/09 06:48:12;;;;;;;0.10;0.10;;;;;;;22.40;50.94;102269.78;5100875;28;21254;-44
2022/08/09 06:50:52;;;;;;;0.10;0.10;;;;;;;22.43;50.85;102276.75;5122342;28;20509;-42
2022/08/09 06:53:18;;;;;;;0.10;0.10;;;;;;;22.45;50.91;102274.53;5124757;27;20051;-43
2022/08/09 06:55:45;;;;;;;0.10;0.10;;;;;;;22.34;51.01;102276.44;5100416;28;20051;-42
2022/08/09 06:58:15;;;;;;;0.10;0.10;;;;;;;22.48;51.17;102279.53;5120385;28;20077;-43
2022/08/09 07:01:01;;;;;;;0.10;0.10;;;;;;;22.66;50.70;102269.88;5103942;28;20465;-40
2022/08/09 07:03:26;;;;;;;0.10;0.10;;;;;;;22.69;50.55;102269.34;5122960;28;20092;-41
2022/08/09 07:05:55;;;;;;;0.10;0.10;;;;;;;22.70;50.59;102273.78;5117383;28;20051;-38
2022/08/09 07:08:31;;;;;;;0.10;0.10;;;;;;;22.67;50.62;102275.19;5107081;28;20453;-40
2022/08/09 07:10:56;;;;;;;0.10;0.10;;;;;;;22.69;50.79;102277.69;5103706;28;20087;-40
2022/08/09 07:13:22;;;;;;;0.10;0.10;;;;;;;22.69;50.84;102272.13;5116291;27;20054;-42
2022/08/09 07:15:55;;;;;;;0.10;0.10;;;;;;;22.69;50.95;102280.47;5113798;28;20056;-40
2022/08/09 07:18:40;;;;;;;0.10;0.10;;;;;;;22.69;50.93;102277.69;5101971;28;20035;-38
2022/08/09 07:21:08;;;;;;;0.10;0.10;;;;;;;22.70;50.67;102276.56;5122906;27;20062;-39
2022/08/09 07:23:35;;;;;;;0.10;0.10;;;;;;;22.68;50.69;102279.63;5123549;28;20062;-38
2022/08/09 07:26:02;;;;;;;0.10;0.10;;;;;;;22.67;50.72;102279.91;5119922;28;20047;-38
2022/08/09 07:28:29;;;;;;;0.10;0.10;;;;;;;22.66;50.88;102281.00;5102934;28;20096;-39
2022/08/09 07:31:00;;;;;;;0.10;0.10;;;;;;;22.66;50.83;102287.38;5121355;28;20103;-40
2022/08/09 07:33:26;;;;;;;0.10;0.10;;;;;;;22.66;50.99;102272.66;5122603;28;20047;-39
2022/08/09 07:35:56;;;;;;;0.20;0.20;;;;;;;22.66;50.76;102286.56;5113379;28;20347;-36
2022/08/09 07:38:21;;;;;;;0.10;0.10;;;;;;;22.65;51.23;102279.34;5121269;28;20051;-40
2022/08/09 07:40:49;;;;;;;0.10;0.10;;;;;;;22.68;50.89;102278.81;5119705;27;20620;-38
2022/08/09 07:43:34;;;;;;;0.10;0.10;;;;;;;22.70;50.97;102279.34;5098873;28;20665;-38
2022/08/09 07:46:15;;;;;;;0.10;0.10;;;;;;;22.71;51.45;102273.53;5109538;27;20078;-39
2022/08/09 07:48:45;;;;;;;0.10;0.10;;;;;;;22.73;51.26;102278.81;5115788;28;20044;-37
2022/08/09 07:51:18;;;;;;;0.10;0.10;;;;;;;22.74;51.23;102275.75;5113349;27;20466;-42
2022/08/09 07:54:04;;;;;;;0.10;0.10;;;;;;;22.91;50.79;102281.13;5090520;28;20062;-42
2022/08/09 07:56:35;;;;;;;0.10;0.10;;;;;;;22.96;50.75;102267.22;5102455;28;20043;-42
2022/08/09 07:59:10;;;;;;;0.10;0.10;;;;;;;22.92;50.74;102270.84;5111621;28;20058;-36
2022/08/09 08:01:51;;;;;;;0.10;0.10;;;;;;;23.01;50.62;102283.06;5109439;27;20134;-42
2022/08/09 08:04:18;;;;;;;0.10;0.10;;;;;;;23.04;50.70;102282.53;5118920;28;20708;-38
2022/08/09 08:06:50;;;;;;;0.10;0.10;;;;;;;23.06;50.75;102274.78;5091608;28;20490;-41
2022/08/09 08:09:25;;;;;;;0.10;0.10;;;;;;;23.07;50.70;102276.44;5113827;28;20039;-42
2022/08/09 08:12:10;;;;;;;0.10;0.10;;;;;;;23.07;50.78;102282.00;5097915;28;21333;-43
2022/08/09 08:14:55;;;;;;;0.10;0.10;;;;;;;23.07;50.84;102287.56;5114322;28;20059;-43
2022/08/09 08:17:22;;;;;;;0.10;0.10;;;;;;;23.08;50.80;102286.44;5115801;27;20396;-43
2022/08/09 08:20:09;;;;;;;0.20;0.20;;;;;;;23.02;50.61;102287.56;5084673;28;20316;-45
2022/08/09 08:22:39;;;;;;;0.10;0.10;;;;;;;23.09;50.57;102281.72;5120632;28;20043;-45
2022/08/09 08:25:05;;;;;;;0.10;0.10;;;;;;;23.10;50.65;102288.94;5103581;28;20064;-43
2022/08/09 08:27:38;;;;;;;0.10;0.10;;;;;;;23.11;50.43;102290.63;5125420;28;20191;-44
2022/08/09 08:30:07;;;;;;;0.10;0.10;;;;;;;23.10;50.56;102287.00;5103515;28;20109;-43
2022/08/09 08:32:36;;;;;;;0.10;0.10;;;;;;;23.11;50.68;102291.47;5122812;27;20047;-44
2022/08/09 08:35:19;;;;;;;0.10;0.10;;;;;;;23.12;50.54;102292.28;5114579;28;20054;-42
2022/08/09 08:37:47;;;;;;;0.10;0.10;;;;;;;23.12;50.62;102287.56;5097691;28;20051;-44
2022/08/09 08:40:33;;;;;;;0.10;0.10;;;;;;;23.12;50.52;102287.56;5107347;28;20332;-42
2022/08/09 08:43:00;;;;;;;0.10;0.10;;;;;;;23.13;50.37;102292.00;5115432;27;20150;-43
2022/08/09 08:45:31;;;;;;;0.10;0.10;;;;;;;23.12;50.59;102295.91;5118675;27;20552;-43
2022/08/09 08:48:04;;;;;;;0.10;0.10;;;;;;;23.10;50.25;102295.34;5115593;27;20569;-44
2022/08/09 08:50:30;;;;;;;0.10;0.10;;;;;;;23.15;50.27;102300.09;5098403;27;20293;-43
2022/08/09 08:52:56;;;;;;;0.10;0.10;;;;;;;23.17;50.31;102293.13;5118124;27;20054;-44
2022/08/09 08:55:26;;;;;;;0.10;0.10;;;;;;;23.18;49.81;102288.41;5118966;28;20159;-42
2022/08/09 08:57:53;;;;;;;0.10;0.10;;;;;;;23.19;50.00;102290.91;5095617;28;20058;-42
2022/08/09 09:00:23;;;;;;;0.10;0.10;;;;;;;23.19;50.09;102296.47;5103156;28;20043;-43
2022/08/09 09:02:58;;;;;;;0.10;0.10;;;;;;;23.20;50.11;102302.88;5104695;28;20043;-41
2022/08/09 09:05:33;;;;;;;0.10;0.10;;;;;;;23.19;50.36;102303.97;5103246;28;20527;-40
2022/08/09 09:08:19;;;;;;;0.10;0.10;;;;;;;23.22;50.04;102303.41;5106473;28;20061;-41
2022/08/09 09:11:00;;;;;;;0.10;0.10;;;;;;;23.22;50.28;102300.63;5116774;28;20057;-39
2022/08/09 09:13:26;;;;;;;0.10;0.10;;;;;;;23.22;50.10;102297.84;5120750;28;20103;-43
2022/08/09 09:16:12;;;;;;;0.10;0.10;;;;;;;23.21;50.14;102310.09;5112377;28;20040;-40
2022/08/09 09:18:37;;;;;;;0.10;0.10;;;;;;;23.21;50.29;102294.25;5124011;28;20377;-41
2022/08/09 09:21:06;;;;;;;0.10;0.10;;;;;;;23.20;49.65;102289.81;5122580;28;20046;-41
2022/08/09 09:23:41;;;;;;;0.10;0.10;;;;;;;23.24;49.28;102295.66;5086552;28;20533;-42
2022/08/09 09:26:15;;;;;;;0.10;0.10;;;;;;;23.26;49.55;102298.97;5098831;28;20096;-37
2022/08/09 09:28:45;;;;;;;0.10;0.10;;;;;;;23.27;49.65;102292.28;5125676;28;20134;-39
2022/08/09 09:31:31;;;;;;;0.10;0.10;;;;;;;23.25;49.80;102300.91;5089370;28;21024;-42
2022/08/09 09:34:16;;;;;;;0.20;0.20;;;;;;;23.25;50.34;102302.88;5106978;27;20087;-39
2022/08/09 09:36:44;;;;;;;0.10;0.10;;;;;;;23.26;50.24;102305.38;5122069;28;20130;-42
2022/08/09 09:39:21;;;;;;;0.10;0.10;;;;;;;23.27;50.18;102295.06;5105064;27;20047;-39
2022/08/09 09:41:49;;;;;;;0.20;0.20;;;;;;;23.26;50.23;102294.25;5102231;28;20055;-43
2022/08/09 09:44:26;;;;;;;0.10;0.10;;;;;;;23.27;50.26;102293.16;5101237;28;20070;-42
2022/08/09 09:47:02;;;;;;;0.10;0.10;;;;;;;23.28;50.42;102294.81;5101871;28;20042;-42
2022/08/09 09:49:29;;;;;;;0.10;0.10;;;;;;;23.23;56.42;102297.59;5120353;27;20048;-44
2022/08/09 09:52:15;;;;;;;0.10;0.10;;;;;;;23.19;60.47;102299.25;5103737;28;20054;-36
2022/08/09 09:55:05;;;;;;;0.10;0.10;;;;;;;23.18;64.71;102307.84;5103463;27;20047;-36
2022/08/09 09:58:03;;;;;;;0.10;0.10;;;;;;;23.15;58.89;102297.31;5106960;28;20051;-36
2022/08/09 10:00:47;;;;;;;0.10;0.10;;;;;;;23.15;62.37;102300.09;5104854;28;20043;-36
2022/08/09 10:03:38;;;;;;;0.10;0.10;;;;;;;23.15;61.04;102300.09;5121912;27;20073;-36
2022/08/09 10:06:05;;;;;;;0.13;0.13;;;;;;;23.12;58.49;102300.63;5100059;28;20054;-36
2022/08/09 10:08:31;;;;;;;0.52;0.40;;;;;;;23.10;55.76;102298.13;5120011;27;20048;-35
2022/08/09 10:10:57;;;;;;;0.10;0.10;;;;;;;23.11;55.60;102296.19;5118247;27;20555;-36
2022/08/09 10:13:22;;;;;;;0.10;0.10;;;;;;;23.15;52.28;102294.53;5120027;27;20136;-36
2022/08/09 10:16:08;;;;;;;0.10;0.10;;;;;;;23.19;52.67;102292.88;5079810;27;20588;-36
2022/08/09 10:18:56;;;;;;;0.10;0.10;;;;;;;23.19;53.08;102292.88;5091486;27;20734;-36
2022/08/09 10:21:26;;;;;;;0.10;0.10;;;;;;;23.19;51.82;102292.88;5099210;28;20062;-36
2022/08/09 10:23:52;;;;;;;0.13;0.13;;;;;;;23.18;52.14;102289.22;5101474;28;20050;-36
2022/08/09 10:26:20;;;;;;;0.10;0.10;;;;;;;23.18;51.94;102292.00;5123821;28;20036;-36
2022/08/09 10:28:50;;;;;;;0.10;0.10;;;;;;;23.18;47.60;102292.00;5121144;28;20047;-40
2022/08/09 10:31:38;;;;;;;0.10;0.10;;;;;;;23.22;48.97;102287.56;5091555;28;20689;-36
2022/08/09 10:34:24;;;;;;;0.10;0.10;;;;;;;23.23;49.66;102286.47;5092596;28;20751;-36
2022/08/09 10:37:01;;;;;;;0.10;0.10;;;;;;;23.23;49.87;102289.25;5125344;27;20069;-36
2022/08/09 10:39:28;;;;;;;0.10;0.10;;;;;;;23.24;50.37;102285.38;5102605;28;20382;-36
2022/08/09 10:41:54;;;;;;;0.10;0.10;;;;;;;23.24;50.03;102290.91;5120153;28;20051;-36
2022/08/09 10:44:21;;;;;;;0.10;0.10;;;;;;;23.21;46.38;102290.63;5122046;27;20074;-37
2022/08/09 10:47:08;;;;;;;;;;;;;;;23.29;47.76;102292.88;5095239;27;20103;-36
2022/08/09 10:53:18;;;;;;;0.10;0.10;;;;;;;23.31;48.75;102282.28;5170510;27;20489;-35
2022/08/09 10:55:48;;;;;;;0.10;0.10;;;;;;;23.31;49.14;102273.97;5122267;27;20141;-34
2022/08/09 10:58:29;;;;;;;0.10;0.10;;;;;;;23.32;49.14;102281.22;5145033;27;20051;-34
2022/08/09 11:00:55;;;;;;;0.10;0.10;;;;;;;23.29;49.15;102282.59;5123131;27;20146;-34
2022/08/09 11:06:47;;;;;;;0.10;0.10;;;;;;;23.29;49.31;102268.69;5170807;27;20111;-37
2022/08/09 11:09:15;;;;;;;;;;;;;;;23.29;49.13;102279.81;5141197;27;20073;-34
2022/08/09 11:14:37;;;;;;;0.10;0.10;;;;;;;23.34;48.94;102276.19;5152228;27;20199;-35
2022/08/09 11:17:25;;;;;;;0.10;0.10;;;;;;;23.33;49.00;102274.53;5148172;27;20054;-35
2022/08/09 11:20:09;;;;;;;0.10;0.10;;;;;;;23.33;49.78;102268.97;5140229;27;20508;-34
2022/08/09 11:25:35;;;;;;;0.10;0.10;;;;;;;23.32;46.06;102269.25;5162458;27;20852;-37
2022/08/09 11:28:32;;;;;;;0.10;0.10;;;;;;;23.14;46.29;102265.03;5160083;27;20038;-39
2022/08/09 11:31:02;;;;;;;0.10;0.10;;;;;;;23.09;46.30;102268.66;5140646;27;20087;-39
2022/08/09 11:33:40;;;;;;;0.10;0.10;;;;;;;23.09;46.41;102262.25;5161377;27;20057;-39
2022/08/09 11:36:09;;;;;;;0.10;0.10;;;;;;;23.06;46.58;102265.56;5138519;27;20051;-39
2022/08/09 11:39:00;;;;;;;0.10;0.10;;;;;;;22.98;46.86;102261.41;5121073;27;20377;-39
2022/08/09 11:41:28;;;;;;;0.10;0.10;;;;;;;22.99;46.95;102258.34;5135845;27;20139;-39
2022/08/09 11:44:06;;;;;;;0.10;0.10;;;;;;;23.04;46.98;102250.03;5128475;27;20039;-39
2022/08/09 11:46:52;;;;;;;0.10;0.10;;;;;;;23.10;46.64;102233.34;5127148;27;20139;-40
2022/08/09 11:49:59;;;;;;;0.10;0.10;;;;;;;23.11;46.23;102243.38;5116862;27;20039;-40
2022/08/09 11:55:38;;;;;;;0.10;0.10;;;;;;;23.13;46.64;102236.41;5151269;27;20219;-37
2022/08/09 12:01:05;;;;;;;0.10;0.10;;;;;;;23.19;47.04;102240.06;5165103;27;20124;-37
2022/08/09 12:03:43;;;;;;;0.10;0.10;;;;;;;23.09;49.01;102237.25;5131225;27;20092;-38
2022/08/09 12:06:25;;;;;;;0.10;0.10;;;;;;;23.00;49.74;102236.97;5137058;27;20575;-38
2022/08/09 12:08:59;;;;;;;0.10;0.10;;;;;;;22.87;50.10;102241.06;5113066;27;20094;-37
2022/08/09 12:11:26;;;;;;;0.10;0.10;;;;;;;22.89;49.57;102233.31;5121008;27;20369;-38
2022/08/09 12:13:56;;;;;;;0.10;0.10;;;;;;;22.82;49.47;102243.00;5118689;27;20137;-37
2022/08/09 12:16:40;;;;;;;0.10;0.10;;;;;;;22.89;48.89;102233.31;5102457;27;20371;-39
2022/08/09 12:19:07;;;;;;;0.10;0.10;;;;;;;22.86;49.41;102238.59;5136321;27;20050;-37